createdAt,value
2019-03-31T00:01:52.922Z,53.30
2019-03-31T00:04:19.258Z,52.10
2019-03-31T00:06:45.588Z,51.10
2019-03-31T00:40:55.648Z,54.33
2019-03-31T00:43:21.911Z,63.00
2019-03-31T00:45:48.534Z,59.07
2019-03-31T00:48:15.182Z,59.13
2019-03-31T00:50:41.593Z,55.73
2019-03-31T00:53:08.135Z,54.63
2019-03-31T00:55:34.447Z,62.13
2019-03-31T00:58:00.777Z,53.90
2019-03-31T01:00:38.371Z,57.67
2019-03-31T01:03:05.010Z,61.90
2019-03-31T01:05:31.340Z,59.93
2019-03-31T01:07:58.898Z,61.53
2019-03-31T01:10:25.229Z,56.47
2019-03-31T01:12:51.763Z,56.53
2019-03-31T01:15:22.701Z,57.83
2019-03-31T01:17:49.441Z,56.60
2019-03-31T01:20:16.591Z,60.63
2019-03-31T01:22:43.127Z,53.57
2019-03-31T01:25:24.128Z,52.03
2019-03-31T01:27:38.480Z,56.40
2019-03-31T01:30:05.725Z,57.43
2019-03-31T01:32:32.032Z,61.33
2019-03-31T01:34:58.469Z,58.10
2019-03-31T01:37:25.001Z,60.47
2019-03-31T01:39:51.555Z,57.87
2019-03-31T01:42:17.969Z,61.63
2019-03-31T01:44:44.504Z,66.70
2019-03-31T01:47:12.826Z,61.30
2019-03-31T01:49:39.517Z,60.37
2019-03-31T01:52:05.848Z,64.20
2019-03-31T01:54:32.131Z,66.53
2019-03-31T01:56:58.513Z,63.83
2019-03-31T01:59:25.246Z,60.50
2019-03-31T02:02:03.615Z,61.17
2019-03-31T02:04:19.754Z,69.50
2019-03-31T02:06:46.106Z,66.47
2019-03-31T02:09:12.515Z,68.47
2019-03-31T02:11:38.720Z,66.83
2019-03-31T02:14:05.176Z,66.63
2019-03-31T02:16:31.507Z,75.60
2019-03-31T02:18:57.942Z,74.13
2019-03-31T02:21:24.270Z,67.23
2019-03-31T02:23:50.601Z,68.23
2019-03-31T02:26:17.135Z,64.40
2019-03-31T02:28:43.980Z,66.17
2019-03-31T02:31:10.264Z,67.37
2019-03-31T02:33:36.639Z,69.13
2019-03-31T02:36:03.185Z,66.60
2019-03-31T02:38:29.550Z,64.30
2019-03-31T02:40:55.996Z,62.50
2019-03-31T02:43:22.378Z,62.97
2019-03-31T02:45:48.701Z,58.43
2019-03-31T02:48:15.549Z,60.10
2019-03-31T02:50:47.402Z,55.30
2019-03-31T02:53:15.372Z,55.23
2019-03-31T02:55:43.134Z,53.87
2019-03-31T02:58:11.103Z,55.07
2019-03-31T03:00:37.694Z,56.87
2019-03-31T03:03:06.121Z,50.77
2019-03-31T03:05:32.867Z,56.00
2019-03-31T03:08:00.213Z,48.67
2019-03-31T03:10:27.294Z,49.77
2019-03-31T03:12:57.483Z,49.60
2019-03-31T03:15:26.076Z,52.30
2019-03-31T03:17:52.436Z,48.87
2019-03-31T03:20:18.831Z,52.07
2019-03-31T03:22:45.086Z,58.13
2019-03-31T03:25:11.391Z,54.60
2019-03-31T03:27:37.722Z,53.53
2019-03-31T03:30:05.694Z,50.90
2019-03-31T03:32:32.018Z,53.57
2019-03-31T03:34:58.347Z,48.67
2019-03-31T03:37:25.572Z,55.27
2019-03-31T03:39:51.929Z,56.33
2019-03-31T03:42:18.262Z,58.57
2019-03-31T03:44:44.597Z,50.87
2019-03-31T03:47:10.934Z,52.50
2019-03-31T03:49:37.352Z,53.13
2019-03-31T03:52:03.707Z,45.83
2019-03-31T03:54:30.019Z,49.13
2019-03-31T03:56:56.344Z,51.87
2019-03-31T03:59:22.681Z,47.40
2019-03-31T04:01:49.107Z,47.43
2019-03-31T04:04:15.436Z,43.00
2019-03-31T04:06:41.771Z,45.63
2019-03-31T04:09:08.098Z,45.53
2019-03-31T04:11:34.554Z,47.53
2019-03-31T04:14:00.962Z,49.97
2019-03-31T04:16:27.608Z,51.93
2019-03-31T04:18:54.136Z,55.97
2019-03-31T04:21:20.466Z,50.47
2019-03-31T04:23:46.749Z,52.83
2019-03-31T04:26:13.261Z,55.20
2019-03-31T04:28:39.556Z,49.17
2019-03-31T04:31:06.213Z,47.07
2019-03-31T04:33:49.416Z,45.80
2019-03-31T04:36:00.739Z,47.27
2019-03-31T04:38:27.135Z,46.80
2019-03-31T04:40:53.773Z,47.17
2019-03-31T04:43:20.446Z,41.10
2019-03-31T04:45:46.849Z,48.23
2019-03-31T04:48:13.130Z,42.80
2019-03-31T04:50:39.469Z,44.93
2019-03-31T04:53:06.553Z,49.20
2019-03-31T04:55:32.881Z,42.50
2019-03-31T04:57:59.187Z,41.73
2019-03-31T05:00:25.545Z,37.63
2019-03-31T05:02:51.868Z,42.10
2019-03-31T05:05:18.303Z,43.93
2019-03-31T05:07:45.452Z,45.53
2019-03-31T05:10:11.781Z,40.33
2019-03-31T05:12:38.112Z,41.50
2019-03-31T05:15:04.545Z,38.40
2019-03-31T05:17:30.977Z,40.90
2019-03-31T05:19:57.319Z,41.40
2019-03-31T05:22:23.725Z,36.90
2019-03-31T05:24:50.046Z,36.87
2019-03-31T05:27:16.403Z,42.03
2019-03-31T05:29:42.731Z,37.03
2019-03-31T05:32:09.061Z,31.33
2019-03-31T05:34:37.050Z,31.00
2019-03-31T05:37:03.359Z,38.93
2019-03-31T05:39:29.689Z,36.77
2019-03-31T05:41:56.062Z,37.33
2019-03-31T05:44:22.453Z,34.63
2019-03-31T05:46:48.787Z,31.80
2019-03-31T05:49:15.216Z,40.30
2019-03-31T05:51:41.548Z,33.33
2019-03-31T05:54:07.985Z,28.97
2019-03-31T05:56:34.411Z,31.90
2019-03-31T05:59:01.066Z,32.57
2019-03-31T06:01:27.482Z,36.80
2019-03-31T06:03:53.811Z,31.47
2019-03-31T06:06:20.249Z,37.67
2019-03-31T06:08:46.779Z,35.37
2019-03-31T06:11:13.111Z,28.60
2019-03-31T06:13:39.544Z,30.53
2019-03-31T06:16:05.976Z,36.03
2019-03-31T06:18:32.801Z,31.40
2019-03-31T06:20:59.255Z,28.83
2019-03-31T06:23:25.585Z,33.00
2019-03-31T06:25:51.795Z,31.83
2019-03-31T06:28:18.241Z,33.40
2019-03-31T06:30:44.675Z,31.40
2019-03-31T06:33:11.108Z,31.90
2019-03-31T06:35:37.377Z,32.03
2019-03-31T06:38:03.769Z,31.00
2019-03-31T06:40:30.205Z,32.40
2019-03-31T06:42:56.843Z,35.17
2019-03-31T06:45:23.189Z,34.77
2019-03-31T06:47:49.498Z,33.73
2019-03-31T06:50:15.826Z,30.07
2019-03-31T06:52:42.482Z,28.67
2019-03-31T06:55:09.329Z,32.67
2019-03-31T06:57:35.777Z,29.93
2019-03-31T07:00:04.484Z,25.80
2019-03-31T07:02:30.859Z,24.87
2019-03-31T07:05:01.196Z,23.53
2019-03-31T07:07:25.364Z,22.57
2019-03-31T07:09:52.021Z,22.17
2019-03-31T07:12:18.434Z,20.13
2019-03-31T07:14:45.121Z,17.07
2019-03-31T07:17:11.471Z,21.70
2019-03-31T07:19:37.841Z,19.30
2019-03-31T07:22:04.063Z,17.77
2019-03-31T07:24:30.367Z,20.47
2019-03-31T07:26:58.517Z,18.67
2019-03-31T07:29:24.793Z,16.03
2019-03-31T07:31:51.229Z,20.00
2019-03-31T07:34:17.766Z,15.07
2019-03-31T07:36:44.071Z,17.77
2019-03-31T07:39:10.610Z,17.80
2019-03-31T07:41:37.219Z,17.10
2019-03-31T07:44:03.698Z,20.17
2019-03-31T07:46:30.354Z,17.07
2019-03-31T07:48:56.705Z,17.30
2019-03-31T07:51:23.097Z,15.73
2019-03-31T07:53:49.655Z,15.63
2019-03-31T07:56:16.383Z,16.80
2019-03-31T07:58:42.707Z,18.57
2019-03-31T08:01:09.002Z,14.17
2019-03-31T08:03:35.438Z,17.07
2019-03-31T08:06:01.912Z,20.70
2019-03-31T08:08:28.370Z,19.30
2019-03-31T08:10:54.814Z,17.50
2019-03-31T08:13:21.115Z,17.83
2019-03-31T08:15:47.539Z,14.77
2019-03-31T08:18:13.968Z,17.17
2019-03-31T08:20:42.111Z,14.60
2019-03-31T08:23:08.367Z,14.03
2019-03-31T08:25:34.635Z,13.13
2019-03-31T08:28:01.021Z,13.80
2019-03-31T08:30:27.689Z,14.57
2019-03-31T08:32:53.990Z,12.80
2019-03-31T08:35:20.320Z,14.20
2019-03-31T08:37:46.651Z,14.17
2019-03-31T08:40:13.719Z,16.57
2019-03-31T08:42:40.458Z,12.87
2019-03-31T08:45:07.489Z,16.27
2019-03-31T08:47:33.693Z,10.23
2019-03-31T08:50:01.990Z,10.40
2019-03-31T08:52:28.220Z,14.47
2019-03-31T08:54:54.446Z,11.57
2019-03-31T08:57:21.136Z,14.30
2019-03-31T08:59:47.516Z,13.30
2019-03-31T09:02:30.742Z,14.83
2019-03-31T09:04:57.071Z,14.10
2019-03-31T09:07:23.507Z,12.37
2019-03-31T09:09:49.836Z,10.70
2019-03-31T09:12:16.099Z,10.93
2019-03-31T09:14:42.495Z,10.83
2019-03-31T09:17:08.826Z,11.43
2019-03-31T09:19:35.155Z,11.47
2019-03-31T09:22:01.488Z,11.40
2019-03-31T09:24:27.787Z,10.73
2019-03-31T09:26:54.150Z,13.37
2019-03-31T09:29:20.482Z,10.47
2019-03-31T09:31:46.807Z,11.77
2019-03-31T09:34:13.242Z,11.37
2019-03-31T09:36:39.922Z,11.17
2019-03-31T09:39:06.314Z,12.37
2019-03-31T09:41:32.744Z,12.67
2019-03-31T09:43:59.513Z,10.83
2019-03-31T09:46:25.823Z,10.63
2019-03-31T09:48:52.128Z,12.27
2019-03-31T09:51:18.476Z,12.93
2019-03-31T09:53:44.805Z,13.17
2019-03-31T09:56:11.359Z,14.47
2019-03-31T09:58:37.669Z,11.83
2019-03-31T10:01:03.945Z,12.97
2019-03-31T10:03:30.332Z,13.87
2019-03-31T10:06:10.053Z,12.73
2019-03-31T10:08:25.779Z,16.53
2019-03-31T10:10:52.295Z,11.73
2019-03-31T10:13:18.829Z,12.53
2019-03-31T10:15:45.260Z,13.40
2019-03-31T10:18:11.594Z,15.27
2019-03-31T10:20:37.935Z,13.67
2019-03-31T10:23:04.361Z,13.33
2019-03-31T10:25:30.827Z,15.03
2019-03-31T10:27:57.341Z,13.00
2019-03-31T10:30:37.987Z,13.30
2019-03-31T10:33:05.211Z,12.77
2019-03-31T10:35:31.888Z,13.43
2019-03-31T10:37:58.307Z,14.70
2019-03-31T10:40:24.849Z,14.43
2019-03-31T10:42:51.268Z,14.20
2019-03-31T10:45:17.558Z,14.07
2019-03-31T10:47:43.876Z,15.40
2019-03-31T10:50:10.369Z,12.87
2019-03-31T10:52:36.802Z,10.47
2019-03-31T10:55:07.116Z,11.67
2019-03-31T10:57:33.526Z,12.70
2019-03-31T10:59:59.846Z,9.97
2019-03-31T11:02:26.423Z,9.73
2019-03-31T11:04:52.799Z,8.97
2019-03-31T11:07:19.187Z,8.93
2019-03-31T11:09:45.403Z,9.40
2019-03-31T11:12:11.808Z,9.40
2019-03-31T11:14:38.176Z,7.83
2019-03-31T11:17:04.815Z,8.10
2019-03-31T11:19:31.146Z,9.33
2019-03-31T11:22:05.362Z,7.77
2019-03-31T11:24:33.505Z,8.20
2019-03-31T11:26:59.865Z,7.23
2019-03-31T11:29:26.194Z,8.00
2019-03-31T11:31:52.523Z,9.13
2019-03-31T11:34:19.792Z,7.40
2019-03-31T11:36:47.568Z,9.17
2019-03-31T11:39:16.322Z,10.37
2019-03-31T11:41:42.146Z,9.27
2019-03-31T11:44:08.477Z,9.27
2019-03-31T11:46:34.813Z,8.67
2019-03-31T11:49:01.137Z,7.57
2019-03-31T11:51:27.432Z,9.03
2019-03-31T11:53:53.798Z,8.80
2019-03-31T11:56:20.130Z,8.97
2019-03-31T11:58:46.371Z,7.40
2019-03-31T12:01:12.692Z,7.77
2019-03-31T12:03:39.119Z,8.23
2019-03-31T12:06:05.941Z,7.43
2019-03-31T12:08:32.599Z,10.00
2019-03-31T12:10:58.819Z,7.53
2019-03-31T12:13:25.157Z,6.93
2019-03-31T12:15:51.489Z,5.70
2019-03-31T12:18:17.718Z,6.87
2019-03-31T12:20:44.148Z,6.17
2019-03-31T12:23:10.795Z,6.07
2019-03-31T12:25:37.114Z,5.70
2019-03-31T12:28:03.450Z,7.13
2019-03-31T12:30:29.783Z,5.30
2019-03-31T12:32:56.644Z,10.70
2019-03-31T12:35:22.954Z,6.43
2019-03-31T12:37:49.709Z,5.67
2019-03-31T12:40:31.687Z,7.43
2019-03-31T12:42:57.916Z,6.90
2019-03-31T12:45:24.568Z,5.50
2019-03-31T12:47:50.987Z,6.83
2019-03-31T12:50:17.212Z,5.67
2019-03-31T12:52:46.981Z,6.07
2019-03-31T12:55:12.026Z,5.77
2019-03-31T12:57:38.361Z,6.33
2019-03-31T13:00:05.457Z,5.67
2019-03-31T13:02:31.834Z,7.13
2019-03-31T13:04:58.163Z,6.77
2019-03-31T13:07:24.598Z,5.20
2019-03-31T13:09:51.281Z,5.87
2019-03-31T13:12:17.594Z,5.70
2019-03-31T13:14:43.997Z,4.63
2019-03-31T13:17:10.327Z,5.07
2019-03-31T13:19:36.660Z,4.73
2019-03-31T13:22:02.992Z,5.17
2019-03-31T13:24:29.251Z,5.90
2019-03-31T13:26:55.652Z,5.03
2019-03-31T13:29:22.082Z,6.70
2019-03-31T13:31:48.513Z,4.23
2019-03-31T13:34:15.120Z,5.63
2019-03-31T13:36:41.483Z,7.80
2019-03-31T13:39:07.913Z,5.73
2019-03-31T13:41:34.244Z,4.30
2019-03-31T13:44:00.743Z,4.63
2019-03-31T13:46:27.109Z,8.00
2019-03-31T13:48:53.439Z,5.80
2019-03-31T13:51:19.771Z,4.57
2019-03-31T13:53:46.104Z,6.97
2019-03-31T13:56:12.605Z,4.30
2019-03-31T13:58:39.228Z,6.33
2019-03-31T14:01:05.727Z,5.43
2019-03-31T14:03:32.042Z,5.27
2019-03-31T14:05:58.279Z,5.13
2019-03-31T14:08:25.964Z,6.60
2019-03-31T14:10:52.567Z,6.53
2019-03-31T14:13:18.845Z,5.77
2019-03-31T14:15:45.225Z,5.43
2019-03-31T14:18:11.555Z,5.87
2019-03-31T14:20:37.756Z,5.27
2019-03-31T14:23:04.318Z,5.93
2019-03-31T14:25:31.072Z,8.30
2019-03-31T14:27:57.388Z,7.90
2019-03-31T14:30:23.925Z,6.13
2019-03-31T14:32:50.152Z,5.93
2019-03-31T14:35:16.658Z,9.07
2019-03-31T14:37:43.120Z,7.63
2019-03-31T14:40:10.581Z,5.50
2019-03-31T14:42:37.118Z,7.40
2019-03-31T14:45:06.616Z,4.47
2019-03-31T14:47:32.946Z,4.77
2019-03-31T14:49:59.392Z,4.50
2019-03-31T14:52:27.622Z,6.60
2019-03-31T14:54:55.951Z,5.43
2019-03-31T14:57:22.467Z,7.20
2019-03-31T14:59:49.018Z,5.43
2019-03-31T15:02:15.434Z,6.00
2019-03-31T15:04:41.764Z,6.50
2019-03-31T15:07:08.097Z,3.80
2019-03-31T15:09:34.654Z,5.17
2019-03-31T15:12:00.947Z,6.63
2019-03-31T15:14:27.292Z,9.67
2019-03-31T15:16:53.553Z,5.97
2019-03-31T15:19:19.864Z,7.77
2019-03-31T15:21:46.283Z,9.87
2019-03-31T15:24:12.614Z,9.80
2019-03-31T15:26:38.944Z,6.53
2019-03-31T15:29:05.290Z,7.03
2019-03-31T15:31:31.527Z,6.57
2019-03-31T15:33:57.938Z,6.57
2019-03-31T15:36:24.156Z,5.17
2019-03-31T15:38:50.503Z,6.43
2019-03-31T15:41:21.367Z,5.03
2019-03-31T15:43:45.419Z,6.63
2019-03-31T15:46:11.755Z,4.63
2019-03-31T15:48:38.019Z,6.40
2019-03-31T15:51:04.314Z,4.93
2019-03-31T15:53:32.451Z,5.40
2019-03-31T15:55:59.040Z,6.47
2019-03-31T15:58:25.453Z,8.73
2019-03-31T16:00:51.782Z,7.23
2019-03-31T16:03:18.218Z,6.67
2019-03-31T16:05:44.637Z,6.00
2019-03-31T16:08:10.999Z,5.27
2019-03-31T16:10:37.420Z,5.13
2019-03-31T16:13:03.740Z,5.30
2019-03-31T16:15:30.397Z,6.83
2019-03-31T16:17:56.812Z,3.77
2019-03-31T16:20:23.144Z,5.63
2019-03-31T16:22:49.472Z,6.97
2019-03-31T16:25:32.801Z,6.00
2019-03-31T16:27:59.130Z,6.80
2019-03-31T16:30:25.778Z,4.73
2019-03-31T16:32:52.313Z,8.00
2019-03-31T16:35:18.829Z,7.63
2019-03-31T16:37:45.171Z,4.87
2019-03-31T16:40:11.706Z,6.53
2019-03-31T16:42:38.078Z,6.70
2019-03-31T16:45:06.004Z,4.47
2019-03-31T16:47:32.231Z,6.47
2019-03-31T16:49:58.560Z,5.33
2019-03-31T16:52:24.892Z,5.77
2019-03-31T16:54:51.233Z,7.53
2019-03-31T16:57:17.874Z,9.27
2019-03-31T16:59:44.296Z,6.17
2019-03-31T17:02:10.623Z,5.83
2019-03-31T17:04:36.877Z,5.53
2019-03-31T17:07:03.377Z,4.20
2019-03-31T17:09:29.679Z,4.07
2019-03-31T17:11:55.963Z,5.80
2019-03-31T17:14:22.274Z,4.93
2019-03-31T17:16:48.561Z,6.10
2019-03-31T17:19:14.860Z,6.63
2019-03-31T17:21:41.365Z,6.23
2019-03-31T17:24:07.642Z,6.17
2019-03-31T17:26:34.028Z,6.20
2019-03-31T17:29:00.604Z,7.47
2019-03-31T17:31:26.998Z,6.17
2019-03-31T17:33:53.188Z,8.70
2019-03-31T17:36:19.556Z,4.77
2019-03-31T17:38:45.886Z,4.73
2019-03-31T17:41:12.142Z,5.10
2019-03-31T17:43:38.442Z,4.13
2019-03-31T17:46:04.774Z,7.37
2019-03-31T17:48:31.139Z,5.83
2019-03-31T17:50:57.760Z,3.40
2019-03-31T17:53:24.083Z,4.03
2019-03-31T17:55:50.407Z,4.97
2019-03-31T17:58:16.735Z,4.23
2019-03-31T18:00:43.066Z,5.77
2019-03-31T18:03:09.292Z,4.87
2019-03-31T18:05:35.574Z,6.40
2019-03-31T18:08:01.952Z,6.80
2019-03-31T18:10:28.284Z,5.90
2019-03-31T18:12:54.611Z,4.17
2019-03-31T18:15:21.008Z,8.33
2019-03-31T18:17:47.308Z,4.73
2019-03-31T18:20:13.704Z,4.63
2019-03-31T18:22:40.029Z,5.23
2019-03-31T18:25:06.711Z,5.33
2019-03-31T18:27:33.325Z,4.83
2019-03-31T18:29:59.744Z,4.03
2019-03-31T18:32:26.076Z,6.57
2019-03-31T18:34:52.324Z,5.07
2019-03-31T18:37:18.734Z,6.30
2019-03-31T18:39:45.166Z,4.67
2019-03-31T18:42:11.496Z,5.87
2019-03-31T18:44:57.666Z,7.20
2019-03-31T18:47:24.029Z,6.60
2019-03-31T18:49:50.355Z,5.43
2019-03-31T18:52:17.457Z,4.70
2019-03-31T18:54:45.663Z,6.17
2019-03-31T18:57:14.276Z,4.60
2019-03-31T18:59:42.537Z,6.93
2019-03-31T19:02:27.530Z,5.57
2019-03-31T19:05:01.671Z,8.00
2019-03-31T19:07:45.047Z,8.80
2019-03-31T19:10:24.645Z,4.57
2019-03-31T19:12:46.310Z,4.90
2019-03-31T19:15:23.598Z,6.03
2019-03-31T19:18:03.957Z,7.40
2019-03-31T19:20:39.823Z,7.17
2019-03-31T19:23:14.027Z,5.23
2019-03-31T19:25:51.317Z,7.03
2019-03-31T19:28:36.331Z,6.90
2019-03-31T19:31:10.319Z,6.63
2019-03-31T19:33:47.680Z,4.47
2019-03-31T19:36:15.955Z,4.23
2019-03-31T19:39:02.161Z,6.97
2019-03-31T19:41:47.190Z,6.93
2019-03-31T19:44:24.453Z,6.97
2019-03-31T19:47:04.871Z,5.30
2019-03-31T19:49:33.149Z,6.97
2019-03-31T19:52:16.579Z,6.33
2019-03-31T19:54:47.943Z,7.60
2019-03-31T19:57:22.445Z,5.67
2019-03-31T19:59:53.691Z,6.03
2019-03-31T20:02:25.374Z,4.70
2019-03-31T20:04:59.597Z,5.63
2019-03-31T20:07:28.145Z,6.73
2019-03-31T20:09:56.312Z,4.83
2019-03-31T20:12:30.717Z,5.53
2019-03-31T20:14:58.942Z,6.73
2019-03-31T20:17:27.082Z,4.03
2019-03-31T20:20:10.428Z,5.87
2019-03-31T20:22:41.767Z,4.13
2019-03-31T20:25:10.198Z,5.83
2019-03-31T20:27:47.632Z,6.23
2019-03-31T20:30:21.854Z,5.70
2019-03-31T20:32:50.009Z,7.60
2019-03-31T20:35:21.142Z,6.47
2019-03-31T20:37:52.089Z,6.00
2019-03-31T20:40:23.281Z,5.77
2019-03-31T20:43:03.609Z,4.83
2019-03-31T20:45:29.907Z,5.17
2019-03-31T20:47:56.265Z,7.07
2019-03-31T20:50:22.514Z,6.20
2019-03-31T20:52:48.930Z,4.70
2019-03-31T20:55:16.461Z,3.77
2019-03-31T20:57:43.229Z,3.93
2019-03-31T21:00:09.905Z,9.00
2019-03-31T21:02:36.294Z,5.07
2019-03-31T21:05:03.223Z,6.73
2019-03-31T21:07:29.545Z,5.20
2019-03-31T21:09:55.840Z,6.57
2019-03-31T21:12:22.232Z,5.97
2019-03-31T21:14:48.446Z,5.20
2019-03-31T21:17:14.790Z,7.47
2019-03-31T21:19:41.120Z,6.07
2019-03-31T21:22:07.447Z,6.83
2019-03-31T21:24:33.780Z,5.10
2019-03-31T21:27:00.007Z,6.57
2019-03-31T21:29:26.316Z,4.47
2019-03-31T21:31:52.668Z,4.47
2019-03-31T21:34:18.998Z,7.00
2019-03-31T21:36:45.327Z,9.30
2019-03-31T21:39:11.760Z,6.10
2019-03-31T21:41:38.109Z,6.07
2019-03-31T21:44:04.418Z,6.30
2019-03-31T21:46:30.856Z,8.07
2019-03-31T21:48:57.295Z,4.87
2019-03-31T21:51:23.822Z,4.40
2019-03-31T21:53:50.152Z,5.10
2019-03-31T21:56:16.484Z,4.77
2019-03-31T21:58:43.036Z,5.20
2019-03-31T22:01:09.769Z,5.17
2019-03-31T22:03:36.703Z,4.67
2019-03-31T22:06:03.274Z,3.43
2019-03-31T22:08:29.582Z,8.50
2019-03-31T22:10:55.910Z,4.67
2019-03-31T22:13:22.241Z,6.13
2019-03-31T22:15:48.462Z,6.30
2019-03-31T22:18:34.785Z,5.27
2019-03-31T22:21:01.109Z,5.73
2019-03-31T22:23:27.429Z,7.13
2019-03-31T22:25:53.731Z,4.90
2019-03-31T22:28:20.506Z,3.97
2019-03-31T22:30:46.727Z,4.60
2019-03-31T22:33:13.057Z,5.37
2019-03-31T22:35:39.388Z,3.43
2019-03-31T22:38:05.623Z,4.53
2019-03-31T22:40:31.947Z,5.70
2019-03-31T22:42:58.379Z,3.90
2019-03-31T22:45:44.547Z,5.07
2019-03-31T22:48:10.905Z,4.80
2019-03-31T22:50:37.330Z,5.47
2019-03-31T22:53:03.699Z,5.43
2019-03-31T22:55:30.003Z,8.23
2019-03-31T22:57:56.437Z,4.77
2019-03-31T23:00:26.860Z,5.57
2019-03-31T23:02:53.088Z,4.73
2019-03-31T23:05:19.484Z,3.80
2019-03-31T23:07:45.850Z,3.33
2019-03-31T23:10:12.389Z,3.27
2019-03-31T23:12:40.578Z,5.43
2019-03-31T23:15:07.195Z,5.53
2019-03-31T23:17:33.528Z,5.20
2019-03-31T23:19:59.857Z,6.80
2019-03-31T23:22:27.807Z,3.93
2019-03-31T23:24:54.273Z,4.57
2019-03-31T23:27:20.692Z,2.13
2019-03-31T23:29:47.125Z,8.50
2019-03-31T23:32:13.524Z,4.07
2019-03-31T23:34:39.887Z,6.33
2019-03-31T23:37:06.225Z,5.17
2019-03-31T23:39:32.466Z,4.10
2019-03-31T23:41:58.969Z,3.30
2019-03-31T23:44:25.306Z,5.77
2019-03-31T23:46:51.577Z,5.07
2019-03-31T23:49:17.974Z,4.57
2019-03-31T23:51:44.300Z,4.03
2019-03-31T23:54:10.608Z,5.70
2019-03-31T23:56:36.961Z,5.67
2019-03-31T23:59:03.295Z,8.63
